sensor_id;sensor_type;location;lat;lon;timestamp;pressure;altitude;pressure_sealevel;temperature;humidity
36692;BME280;22678;52.052;4.242;2022-08-19T00:00:44;101393.22;;;21.56;67.74
36692;BME280;22678;52.052;4.242;2022-08-19T00:03:10;101373.41;;;21.39;67.60
36692;BME280;22678;52.052;4.242;2022-08-19T00:05:35;101396.91;;;21.53;67.94
36692;BME280;22678;52.052;4.242;2022-08-19T00:08:00;101392.56;;;21.50;67.69
36692;BME280;22678;52.052;4.242;2022-08-19T00:10:26;101387.47;;;21.44;67.91
36692;BME280;22678;52.052;4.242;2022-08-19T00:12:51;101399.09;;;21.43;67.85
36692;BME280;22678;52.052;4.242;2022-08-19T00:15:19;101385.06;;;21.38;68.10
36692;BME280;22678;52.052;4.242;2022-08-19T00:17:45;101392.41;;;21.33;68.07
36692;BME280;22678;52.052;4.242;2022-08-19T00:20:14;101364.63;;;21.16;68.10
36692;BME280;22678;52.052;4.242;2022-08-19T00:22:42;101385.59;;;21.26;68.21
36692;BME280;22678;52.052;4.242;2022-08-19T00:25:08;101372.00;;;21.11;68.41
36692;BME280;22678;52.052;4.242;2022-08-19T00:27:33;101361.44;;;21.08;68.37
36692;BME280;22678;52.052;4.242;2022-08-19T00:29:58;101378.13;;;21.13;68.60
36692;BME280;22678;52.052;4.242;2022-08-19T00:32:24;101382.47;;;21.16;68.33
36692;BME280;22678;52.052;4.242;2022-08-19T00:34:51;101385.28;;;21.13;68.55
36692;BME280;22678;52.052;4.242;2022-08-19T00:37:21;101379.47;;;21.03;68.82
36692;BME280;22678;52.052;4.242;2022-08-19T00:39:48;101396.06;;;21.11;69.15
36692;BME280;22678;52.052;4.242;2022-08-19T00:42:13;101370.16;;;20.91;69.33
36692;BME280;22678;52.052;4.242;2022-08-19T00:44:40;101386.56;;;21.04;69.22
36692;BME280;22678;52.052;4.242;2022-08-19T00:47:06;101382.47;;;20.95;69.44
36692;BME280;22678;52.052;4.242;2022-08-19T00:49:35;101387.75;;;20.97;69.28
36692;BME280;22678;52.052;4.242;2022-08-19T00:52:05;101381.72;;;20.92;69.64
36692;BME280;22678;52.052;4.242;2022-08-19T00:54:31;101375.66;;;20.88;69.89
36692;BME280;22678;52.052;4.242;2022-08-19T00:56:59;101366.09;;;20.82;69.73
36692;BME280;22678;52.052;4.242;2022-08-19T00:59:25;101387.06;;;20.92;69.92
36692;BME280;22678;52.052;4.242;2022-08-19T01:01:51;101400.56;;;20.89;69.89
36692;BME280;22678;52.052;4.242;2022-08-19T01:04:17;101353.41;;;20.65;70.09
36692;BME280;22678;52.052;4.242;2022-08-19T01:06:42;101378.91;;;20.74;70.28
36692;BME280;22678;52.052;4.242;2022-08-19T01:09:08;101400.03;;;20.80;70.58
36692;BME280;22678;52.052;4.242;2022-08-19T01:11:37;101398.31;;;20.79;70.48
36692;BME280;22678;52.052;4.242;2022-08-19T01:14:05;101367.91;;;20.60;70.44
36692;BME280;22678;52.052;4.242;2022-08-19T01:16:32;101392.19;;;20.76;70.55
36692;BME280;22678;52.052;4.242;2022-08-19T01:18:58;101364.47;;;20.56;70.86
36692;BME280;22678;52.052;4.242;2022-08-19T01:21:38;101391.59;;;20.69;70.91
36692;BME280;22678;52.052;4.242;2022-08-19T01:24:05;101390.22;;;20.59;71.27
36692;BME280;22678;52.052;4.242;2022-08-19T01:26:31;101377.19;;;20.51;71.20
36692;BME280;22678;52.052;4.242;2022-08-19T01:28:58;101395.44;;;20.62;71.11
36692;BME280;22678;52.052;4.242;2022-08-19T01:31:26;101360.59;;;20.43;71.21
36692;BME280;22678;52.052;4.242;2022-08-19T01:33:56;101386.75;;;20.57;71.39
36692;BME280;22678;52.052;4.242;2022-08-19T01:36:26;101373.75;;;20.47;71.72
36692;BME280;22678;52.052;4.242;2022-08-19T01:38:53;101387.81;;;20.53;71.87
36692;BME280;22678;52.052;4.242;2022-08-19T01:41:19;101369.59;;;20.40;71.80
36692;BME280;22678;52.052;4.242;2022-08-19T01:43:44;101350.72;;;20.23;71.97
36692;BME280;22678;52.052;4.242;2022-08-19T01:46:10;101385.63;;;20.40;72.21
36692;BME280;22678;52.052;4.242;2022-08-19T01:48:39;101393.56;;;20.42;72.23
36692;BME280;22678;52.052;4.242;2022-08-19T01:51:06;101401.50;;;20.43;72.66
36692;BME280;22678;52.052;4.242;2022-08-19T01:53:32;101398.03;;;20.41;72.58
36692;BME280;22678;52.052;4.242;2022-08-19T01:55:58;101387.81;;;20.30;72.91
36692;BME280;22678;52.052;4.242;2022-08-19T01:58:28;101391.22;;;20.34;73.10
36692;BME280;22678;52.052;4.242;2022-08-19T02:00:56;101394.59;;;20.39;73.22
36692;BME280;22678;52.052;4.242;2022-08-19T02:03:21;101391.22;;;20.34;73.38
36692;BME280;22678;52.052;4.242;2022-08-19T02:05:48;101391.22;;;20.34;73.57
36692;BME280;22678;52.052;4.242;2022-08-19T02:08:18;101388.53;;;20.34;73.81
36692;BME280;22678;52.052;4.242;2022-08-19T02:10:44;101387.75;;;20.32;74.04
36692;BME280;22678;52.052;4.242;2022-08-19T02:13:10;101391.34;;;20.31;74.36
36692;BME280;22678;52.052;4.242;2022-08-19T02:15:35;101365.25;;;20.16;74.24
36692;BME280;22678;52.052;4.242;2022-08-19T02:18:01;101374.06;;;20.18;74.50
36692;BME280;22678;52.052;4.242;2022-08-19T02:20:26;101376.44;;;20.25;74.46
36692;BME280;22678;52.052;4.242;2022-08-19T02:22:51;101366.84;;;20.20;74.94
36692;BME280;22678;52.052;4.242;2022-08-19T02:25:17;101350.41;;;20.08;75.10
36692;BME280;22678;52.052;4.242;2022-08-19T02:27:43;101370.59;;;20.16;75.26
36692;BME280;22678;52.052;4.242;2022-08-19T02:30:12;101348.91;;;20.01;75.37
36692;BME280;22678;52.052;4.242;2022-08-19T02:32:37;101372.56;;;20.10;75.71
36692;BME280;22678;52.052;4.242;2022-08-19T02:35:03;101386.50;;;20.19;75.71
36692;BME280;22678;52.052;4.242;2022-08-19T02:37:29;101374.44;;;20.08;75.96
36692;BME280;22678;52.052;4.242;2022-08-19T02:40:13;101357.06;;;19.98;76.01
36692;BME280;22678;52.052;4.242;2022-08-19T02:42:38;101352.69;;;19.95;76.25
36692;BME280;22678;52.052;4.242;2022-08-19T02:45:04;101374.44;;;20.08;76.53
36692;BME280;22678;52.052;4.242;2022-08-19T02:47:30;101355.56;;;19.91;76.65
36692;BME280;22678;52.052;4.242;2022-08-19T02:49:56;101387.72;;;20.10;76.46
36692;BME280;22678;52.052;4.242;2022-08-19T02:52:21;101385.13;;;20.08;76.47
36692;BME280;22678;52.052;4.242;2022-08-19T02:54:48;101365.97;;;19.97;76.90
36692;BME280;22678;52.052;4.242;2022-08-19T02:57:13;101357.19;;;19.95;76.79
36692;BME280;22678;52.052;4.242;2022-08-19T02:59:39;101355.19;;;20.00;77.13
36692;BME280;22678;52.052;4.242;2022-08-19T03:02:04;101330.81;;;19.86;77.04
36692;BME280;22678;52.052;4.242;2022-08-19T03:04:30;101347.47;;;19.92;77.35
36692;BME280;22678;52.052;4.242;2022-08-19T03:06:55;101351.94;;;19.92;77.37
36692;BME280;22678;52.052;4.242;2022-08-19T03:09:21;101365.97;;;19.97;77.41
36692;BME280;22678;52.052;4.242;2022-08-19T03:11:46;101359.84;;;19.95;77.42
36692;BME280;22678;52.052;4.242;2022-08-19T03:14:12;101354.66;;;19.90;77.65
36692;BME280;22678;52.052;4.242;2022-08-19T03:16:46;101354.72;;;19.89;77.59
36692;BME280;22678;52.052;4.242;2022-08-19T03:19:12;101343.38;;;19.84;77.48
36692;BME280;22678;52.052;4.242;2022-08-19T03:21:37;101346.91;;;19.84;77.82
36692;BME280;22678;52.052;4.242;2022-08-19T03:24:06;101338.16;;;19.81;77.83
36692;BME280;22678;52.052;4.242;2022-08-19T03:26:32;101356.94;;;19.77;77.95
36692;BME280;22678;52.052;4.242;2022-08-19T03:29:02;101348.91;;;19.77;78.14
36692;BME280;22678;52.052;4.242;2022-08-19T03:31:28;101359.38;;;19.84;78.31
36692;BME280;22678;52.052;4.242;2022-08-19T03:33:54;101355.94;;;19.80;78.20
36692;BME280;22678;52.052;4.242;2022-08-19T03:36:22;101360.50;;;19.78;78.38
36692;BME280;22678;52.052;4.242;2022-08-19T03:38:52;101361.44;;;19.75;78.38
36692;BME280;22678;52.052;4.242;2022-08-19T03:41:21;101347.78;;;19.61;78.61
36692;BME280;22678;52.052;4.242;2022-08-19T03:43:47;101379.25;;;19.75;79.01
36692;BME280;22678;52.052;4.242;2022-08-19T03:46:16;101366.16;;;19.69;79.16
36692;BME280;22678;52.052;4.242;2022-08-19T03:48:43;101373.28;;;19.68;79.28
36692;BME280;22678;52.052;4.242;2022-08-19T03:51:17;101355.94;;;19.56;79.33
36692;BME280;22678;52.052;4.242;2022-08-19T03:53:44;101342.75;;;19.52;79.12
36692;BME280;22678;52.052;4.242;2022-08-19T03:56:10;101380.41;;;19.68;79.94
36692;BME280;22678;52.052;4.242;2022-08-19T03:58:36;101382.34;;;19.64;79.90
36692;BME280;22678;52.052;4.242;2022-08-19T04:01:07;101360.53;;;19.53;80.36
36692;BME280;22678;52.052;4.242;2022-08-19T04:03:32;101349.06;;;19.49;80.69
36692;BME280;22678;52.052;4.242;2022-08-19T04:05:58;101360.63;;;19.50;81.47
36692;BME280;22678;52.052;4.242;2022-08-19T04:08:23;101362.38;;;19.51;81.84
36692;BME280;22678;52.052;4.242;2022-08-19T04:10:49;101370.34;;;19.52;82.23
36692;BME280;22678;52.052;4.242;2022-08-19T04:13:15;101378.59;;;19.44;82.55
36692;BME280;22678;52.052;4.242;2022-08-19T04:15:42;101377.56;;;19.49;82.82
36692;BME280;22678;52.052;4.242;2022-08-19T04:18:09;101376.88;;;19.43;83.19
36692;BME280;22678;52.052;4.242;2022-08-19T04:20:45;101375.00;;;19.46;83.49
36692;BME280;22678;52.052;4.242;2022-08-19T04:23:12;101369.00;;;19.39;83.59
36692;BME280;22678;52.052;4.242;2022-08-19T04:25:43;101376.81;;;19.45;83.65
36692;BME280;22678;52.052;4.242;2022-08-19T04:28:10;101371.53;;;19.43;83.80
36692;BME280;22678;52.052;4.242;2022-08-19T04:30:50;101345.66;;;19.22;84.06
36692;BME280;22678;52.052;4.242;2022-08-19T04:33:18;101375.13;;;19.42;84.19
36692;BME280;22678;52.052;4.242;2022-08-19T04:35:47;101362.13;;;19.33;84.29
36692;BME280;22678;52.052;4.242;2022-08-19T04:38:14;101372.41;;;19.44;84.56
36692;BME280;22678;52.052;4.242;2022-08-19T04:40:51;101361.19;;;19.34;84.78
36692;BME280;22678;52.052;4.242;2022-08-19T04:43:37;101371.53;;;19.43;84.68
36692;BME280;22678;52.052;4.242;2022-08-19T04:46:07;101370.66;;;19.43;84.89
36692;BME280;22678;52.052;4.242;2022-08-19T04:48:33;101337.53;;;19.25;85.01
36692;BME280;22678;52.052;4.242;2022-08-19T04:50:58;101353.19;;;19.34;85.15
36692;BME280;22678;52.052;4.242;2022-08-19T04:53:34;101361.00;;;19.40;85.60
36692;BME280;22678;52.052;4.242;2022-08-19T04:56:05;101363.59;;;19.42;85.85
36692;BME280;22678;52.052;4.242;2022-08-19T04:58:33;101363.59;;;19.42;85.91
36692;BME280;22678;52.052;4.242;2022-08-19T05:00:58;101361.06;;;19.37;86.17
36692;BME280;22678;52.052;4.242;2022-08-19T05:03:25;101369.06;;;19.37;86.11
36692;BME280;22678;52.052;4.242;2022-08-19T05:05:51;101353.13;;;19.36;86.35
36692;BME280;22678;52.052;4.242;2022-08-19T05:08:19;101348.16;;;19.26;86.84
36692;BME280;22678;52.052;4.242;2022-08-19T05:10:46;101364.91;;;19.30;86.71
36692;BME280;22678;52.052;4.242;2022-08-19T05:13:12;101376.94;;;19.42;87.10
36692;BME280;22678;52.052;4.242;2022-08-19T05:15:38;101376.16;;;19.38;87.02
36692;BME280;22678;52.052;4.242;2022-08-19T05:18:03;101373.59;;;19.35;87.15
36692;BME280;22678;52.052;4.242;2022-08-19T05:20:47;101379.69;;;19.39;87.28
36692;BME280;22678;52.052;4.242;2022-08-19T05:23:30;101386.88;;;19.37;87.28
36692;BME280;22678;52.052;4.242;2022-08-19T05:25:56;101382.31;;;19.40;87.57
36692;BME280;22678;52.052;4.242;2022-08-19T05:28:21;101362.34;;;19.27;87.75
36692;BME280;22678;52.052;4.242;2022-08-19T05:30:47;101350.88;;;19.25;87.62
36692;BME280;22678;52.052;4.242;2022-08-19T05:33:13;101376.75;;;19.47;87.42
36692;BME280;22678;52.052;4.242;2022-08-19T05:35:39;101355.84;;;19.34;87.46
36692;BME280;22678;52.052;4.242;2022-08-19T05:38:07;101374.78;;;19.52;87.55
36692;BME280;22678;52.052;4.242;2022-08-19T05:40:35;101380.94;;;19.54;87.68
36692;BME280;22678;52.052;4.242;2022-08-19T05:43:05;101372.81;;;19.57;87.76
36692;BME280;22678;52.052;4.242;2022-08-19T05:45:30;101360.41;;;19.56;87.65
36692;BME280;22678;52.052;4.242;2022-08-19T05:47:56;101352.34;;;19.57;87.42
36692;BME280;22678;52.052;4.242;2022-08-19T05:50:21;101370.53;;;19.70;87.74
36692;BME280;22678;52.052;4.242;2022-08-19T05:52:47;101375.72;;;19.74;87.61
36692;BME280;22678;52.052;4.242;2022-08-19T05:55:12;101375.41;;;19.84;87.58
36692;BME280;22678;52.052;4.242;2022-08-19T05:57:39;101352.56;;;19.75;87.57
36692;BME280;22678;52.052;4.242;2022-08-19T06:00:06;101388.84;;;20.04;87.55
36692;BME280;22678;52.052;4.242;2022-08-19T06:02:36;101383.91;;;20.17;87.48
36692;BME280;22678;52.052;4.242;2022-08-19T06:05:03;101382.66;;;20.26;87.44
36692;BME280;22678;52.052;4.242;2022-08-19T06:07:28;101380.28;;;20.40;87.41
36692;BME280;22678;52.052;4.242;2022-08-19T06:09:54;101384.94;;;20.57;87.06
36692;BME280;22678;52.052;4.242;2022-08-19T06:12:20;101385.84;;;20.78;86.94
36692;BME280;22678;52.052;4.242;2022-08-19T06:14:56;101388.28;;;21.05;86.69
36692;BME280;22678;52.052;4.242;2022-08-19T06:17:21;101387.47;;;21.24;85.89
36692;BME280;22678;52.052;4.242;2022-08-19T06:19:50;101377.63;;;21.24;85.21
36692;BME280;22678;52.052;4.242;2022-08-19T06:22:15;101396.91;;;21.32;84.83
36692;BME280;22678;52.052;4.242;2022-08-19T06:24:41;101395.00;;;21.34;84.91
36692;BME280;22678;52.052;4.242;2022-08-19T06:27:06;101395.75;;;21.38;85.13
36692;BME280;22678;52.052;4.242;2022-08-19T06:29:31;101382.75;;;21.49;85.05
36692;BME280;22678;52.052;4.242;2022-08-19T06:31:59;101386.75;;;21.61;84.45
36692;BME280;22678;52.052;4.242;2022-08-19T06:34:25;101383.25;;;21.59;84.16
36692;BME280;22678;52.052;4.242;2022-08-19T06:36:52;101387.31;;;21.47;83.81
36692;BME280;22678;52.052;4.242;2022-08-19T06:39:24;101386.66;;;21.42;84.37
36692;BME280;22678;52.052;4.242;2022-08-19T06:41:53;101389.53;;;21.38;84.44
36692;BME280;22678;52.052;4.242;2022-08-19T06:44:21;101384.53;;;21.30;84.76
36692;BME280;22678;52.052;4.242;2022-08-19T06:46:47;101378.47;;;21.26;84.62
36692;BME280;22678;52.052;4.242;2022-08-19T06:49:14;101386.28;;;21.31;84.60
36692;BME280;22678;52.052;4.242;2022-08-19T06:51:44;101390.94;;;21.26;85.08
36692;BME280;22678;52.052;4.242;2022-08-19T06:54:13;101371.09;;;21.11;84.92
36692;BME280;22678;52.052;4.242;2022-08-19T06:56:38;101380.88;;;21.12;85.09
36692;BME280;22678;52.052;4.242;2022-08-19T06:59:08;101399.66;;;21.10;85.73
36692;BME280;22678;52.052;4.242;2022-08-19T07:01:45;101382.69;;;21.11;85.78
36692;BME280;22678;52.052;4.242;2022-08-19T07:04:12;101372.38;;;21.02;85.73
36692;BME280;22678;52.052;4.242;2022-08-19T07:06:38;101381.00;;;21.09;86.03
36692;BME280;22678;52.052;4.242;2022-08-19T07:09:08;101388.16;;;21.08;86.35
36692;BME280;22678;52.052;4.242;2022-08-19T07:11:33;101404.72;;;21.16;86.26
36692;BME280;22678;52.052;4.242;2022-08-19T07:14:00;101397.63;;;21.36;86.84
36692;BME280;22678;52.052;4.242;2022-08-19T07:16:25;101397.22;;;21.45;86.43
36692;BME280;22678;52.052;4.242;2022-08-19T07:18:51;101404.16;;;21.51;86.07
36692;BME280;22678;52.052;4.242;2022-08-19T07:21:24;101399.31;;;21.59;85.65
36692;BME280;22678;52.052;4.242;2022-08-19T07:23:51;101419.50;;;21.66;85.28
36692;BME280;22678;52.052;4.242;2022-08-19T07:26:22;101411.91;;;21.76;85.06
36692;BME280;22678;52.052;4.242;2022-08-19T07:28:48;101422.19;;;21.85;84.57
36692;BME280;22678;52.052;4.242;2022-08-19T07:31:17;101418.59;;;21.86;84.13
36692;BME280;22678;52.052;4.242;2022-08-19T07:33:44;101419.75;;;22.00;83.33
36692;BME280;22678;52.052;4.242;2022-08-19T07:36:11;101418.22;;;22.13;82.73
36692;BME280;22678;52.052;4.242;2022-08-19T07:38:40;101416.31;;;22.15;82.45
36692;BME280;22678;52.052;4.242;2022-08-19T07:41:06;101407.06;;;22.22;81.66
36692;BME280;22678;52.052;4.242;2022-08-19T07:43:32;101412.50;;;22.40;80.98
36692;BME280;22678;52.052;4.242;2022-08-19T07:45:57;101415.69;;;22.48;79.87
36692;BME280;22678;52.052;4.242;2022-08-19T07:48:24;101420.09;;;22.49;79.88
36692;BME280;22678;52.052;4.242;2022-08-19T07:50:54;101396.53;;;22.56;79.64
36692;BME280;22678;52.052;4.242;2022-08-19T07:53:24;101398.50;;;22.70;79.10
36692;BME280;22678;52.052;4.242;2022-08-19T07:55:49;101411.44;;;22.97;77.92
36692;BME280;22678;52.052;4.242;2022-08-19T07:58:18;101405.47;;;22.91;77.24
36692;BME280;22678;52.052;4.242;2022-08-19T08:00:46;101413.38;;;22.95;76.58
36692;BME280;22678;52.052;4.242;2022-08-19T08:03:12;101408.31;;;22.88;76.00
36692;BME280;22678;52.052;4.242;2022-08-19T08:05:38;101415.44;;;22.89;76.27
36692;BME280;22678;52.052;4.242;2022-08-19T08:08:22;101419.34;;;22.82;76.43
36692;BME280;22678;52.052;4.242;2022-08-19T08:11:06;101417.34;;;22.68;76.69
36692;BME280;22678;52.052;4.242;2022-08-19T08:13:32;101430.69;;;22.70;76.66
36692;BME280;22678;52.052;4.242;2022-08-19T08:16:00;101419.34;;;22.65;76.54
36692;BME280;22678;52.052;4.242;2022-08-19T08:18:26;101436.16;;;22.86;77.01
36692;BME280;22678;52.052;4.242;2022-08-19T08:20:51;101437.38;;;23.15;76.04
36692;BME280;22678;52.052;4.242;2022-08-19T08:23:16;101434.81;;;23.47;74.79
36692;BME280;22678;52.052;4.242;2022-08-19T08:25:49;101423.38;;;23.77;74.24
36692;BME280;22678;52.052;4.242;2022-08-19T08:28:15;101437.41;;;24.16;73.47
36692;BME280;22678;52.052;4.242;2022-08-19T08:30:41;101435.59;;;24.16;72.55
36692;BME280;22678;52.052;4.242;2022-08-19T08:33:09;101443.28;;;24.06;71.87
36692;BME280;22678;52.052;4.242;2022-08-19T08:35:35;101446.25;;;23.84;71.53
36692;BME280;22678;52.052;4.242;2022-08-19T08:38:00;101451.50;;;23.70;72.16
36692;BME280;22678;52.052;4.242;2022-08-19T08:43:06;101404.53;;;23.27;72.80
36692;BME280;22678;52.052;4.242;2022-08-19T08:45:35;101445.84;;;23.58;72.77
36692;BME280;22678;52.052;4.242;2022-08-19T08:48:19;101442.38;;;23.56;72.41
36692;BME280;22678;52.052;4.242;2022-08-19T08:50:47;101447.91;;;23.53;72.66
36692;BME280;22678;52.052;4.242;2022-08-19T08:53:15;101461.44;;;23.52;72.64
36692;BME280;22678;52.052;4.242;2022-08-19T08:55:42;101457.06;;;23.49;72.92
36692;BME280;22678;52.052;4.242;2022-08-19T08:58:29;101456.47;;;23.44;73.31
36692;BME280;22678;52.052;4.242;2022-08-19T09:00:56;101459.69;;;23.51;73.64
36692;BME280;22678;52.052;4.242;2022-08-19T09:03:25;101451.22;;;23.58;73.61
36692;BME280;22678;52.052;4.242;2022-08-19T09:06:02;101466.19;;;23.80;73.17
36692;BME280;22678;52.052;4.242;2022-08-19T09:11:15;101470.69;;;23.79;72.20
36692;BME280;22678;52.052;4.242;2022-08-19T09:14:02;101471.38;;;23.83;71.79
36692;BME280;22678;52.052;4.242;2022-08-19T09:16:31;101451.81;;;23.81;72.02
36692;BME280;22678;52.052;4.242;2022-08-19T09:19:01;101420.41;;;23.66;71.58
36692;BME280;22678;52.052;4.242;2022-08-19T09:21:27;101462.78;;;23.94;70.90
36692;BME280;22678;52.052;4.242;2022-08-19T09:23:53;101463.66;;;23.94;70.67
36692;BME280;22678;52.052;4.242;2022-08-19T09:26:20;101462.97;;;24.07;70.15
36692;BME280;22678;52.052;4.242;2022-08-19T09:28:49;101466.69;;;24.20;69.74
36692;BME280;22678;52.052;4.242;2022-08-19T09:31:20;101465.75;;;24.21;69.15
36692;BME280;22678;52.052;4.242;2022-08-19T09:33:47;101466.19;;;24.13;69.35
36692;BME280;22678;52.052;4.242;2022-08-19T09:36:15;101466.78;;;24.35;69.78
36692;BME280;22678;52.052;4.242;2022-08-19T09:38:40;101470.72;;;24.77;69.25
36692;BME280;22678;52.052;4.242;2022-08-19T09:41:10;101479.19;;;25.15;68.36
36692;BME280;22678;52.052;4.242;2022-08-19T09:43:37;101474.69;;;25.16;66.93
36692;BME280;22678;52.052;4.242;2022-08-19T09:46:04;101478.66;;;25.25;66.38
36692;BME280;22678;52.052;4.242;2022-08-19T09:48:33;101470.16;;;25.47;65.64
36692;BME280;22678;52.052;4.242;2022-08-19T09:51:07;101476.63;;;25.59;64.65
36692;BME280;22678;52.052;4.242;2022-08-19T09:53:37;101487.28;;;25.60;64.38
36692;BME280;22678;52.052;4.242;2022-08-19T09:56:03;101473.94;;;25.44;64.80
36692;BME280;22678;52.052;4.242;2022-08-19T09:58:29;101484.38;;;25.34;64.80
36692;BME280;22678;52.052;4.242;2022-08-19T10:00:56;101479.09;;;25.17;64.37
36692;BME280;22678;52.052;4.242;2022-08-19T10:03:22;101490.25;;;25.11;64.79
36692;BME280;22678;52.052;4.242;2022-08-19T10:05:48;101480.97;;;25.00;65.51
36692;BME280;22678;52.052;4.242;2022-08-19T10:08:22;101487.50;;;24.96;65.56
36692;BME280;22678;52.052;4.242;2022-08-19T10:10:48;101489.59;;;24.91;65.96
36692;BME280;22678;52.052;4.242;2022-08-19T10:13:15;101491.78;;;24.84;65.94
36692;BME280;22678;52.052;4.242;2022-08-19T10:15:42;101489.34;;;24.80;66.21
36692;BME280;22678;52.052;4.242;2022-08-19T10:18:07;101486.06;;;24.75;66.63
36692;BME280;22678;52.052;4.242;2022-08-19T10:20:33;101489.25;;;24.81;66.72
36692;BME280;22678;52.052;4.242;2022-08-19T10:23:00;101496.13;;;24.87;66.85
36692;BME280;22678;52.052;4.242;2022-08-19T10:25:25;101471.47;;;24.79;66.92
36692;BME280;22678;52.052;4.242;2022-08-19T10:27:52;101487.25;;;24.85;66.92
36692;BME280;22678;52.052;4.242;2022-08-19T10:30:17;101486.84;;;24.77;67.05
36692;BME280;22678;52.052;4.242;2022-08-19T10:32:44;101476.44;;;24.71;67.08
36692;BME280;22678;52.052;4.242;2022-08-19T10:35:11;101488.59;;;24.78;66.91
36692;BME280;22678;52.052;4.242;2022-08-19T10:37:38;101486.84;;;24.77;66.64
36692;BME280;22678;52.052;4.242;2022-08-19T10:40:06;101486.75;;;24.78;67.22
36692;BME280;22678;52.052;4.242;2022-08-19T10:42:32;101482.41;;;24.76;67.39
36692;BME280;22678;52.052;4.242;2022-08-19T10:44:58;101490.13;;;24.82;67.55
36692;BME280;22678;52.052;4.242;2022-08-19T10:47:23;101478.59;;;24.80;67.31
36692;BME280;22678;52.052;4.242;2022-08-19T10:49:49;101478.78;;;24.77;67.06
36692;BME280;22678;52.052;4.242;2022-08-19T10:52:33;101488.59;;;24.78;67.16
36692;BME280;22678;52.052;4.242;2022-08-19T10:55:03;101488.66;;;24.76;66.79
36692;BME280;22678;52.052;4.242;2022-08-19T10:57:48;101494.47;;;24.69;66.50
36692;BME280;22678;52.052;4.242;2022-08-19T11:00:13;101485.03;;;24.61;66.57
36692;BME280;22678;52.052;4.242;2022-08-19T11:02:39;101494.06;;;24.60;67.13
36692;BME280;22678;52.052;4.242;2022-08-19T11:05:05;101481.91;;;24.53;66.65
36692;BME280;22678;52.052;4.242;2022-08-19T11:07:32;101492.47;;;24.56;67.11
36692;BME280;22678;52.052;4.242;2022-08-19T11:09:57;101477.63;;;24.49;67.50
36692;BME280;22678;52.052;4.242;2022-08-19T11:12:22;101471.50;;;24.47;68.02
36692;BME280;22678;52.052;4.242;2022-08-19T11:14:48;101482.66;;;24.55;68.79
36692;BME280;22678;52.052;4.242;2022-08-19T11:17:15;101490.41;;;24.61;69.22
36692;BME280;22678;52.052;4.242;2022-08-19T11:19:40;101492.25;;;24.61;69.41
36692;BME280;22678;52.052;4.242;2022-08-19T11:22:08;101483.53;;;24.72;69.71
36692;BME280;22678;52.052;4.242;2022-08-19T11:24:35;101481.00;;;24.84;69.16
36692;BME280;22678;52.052;4.242;2022-08-19T11:27:06;101480.56;;;24.92;68.91
36692;BME280;22678;52.052;4.242;2022-08-19T11:29:33;101489.06;;;25.00;68.05
36692;BME280;22678;52.052;4.242;2022-08-19T11:31:59;101487.75;;;25.08;67.62
36692;BME280;22678;52.052;4.242;2022-08-19T11:34:27;101493.94;;;25.24;67.24
36692;BME280;22678;52.052;4.242;2022-08-19T11:36:54;101486.31;;;25.47;66.34
36692;BME280;22678;52.052;4.242;2022-08-19T11:39:24;101489.63;;;25.66;66.00
36692;BME280;22678;52.052;4.242;2022-08-19T11:41:50;101483.88;;;25.73;65.00
36692;BME280;22678;52.052;4.242;2022-08-19T11:44:15;101481.16;;;25.73;64.97
36692;BME280;22678;52.052;4.242;2022-08-19T11:46:42;101480.97;;;25.76;65.09
36692;BME280;22678;52.052;4.242;2022-08-19T11:49:13;101491.84;;;25.88;64.49
36692;BME280;22678;52.052;4.242;2022-08-19T11:51:39;101477.88;;;25.82;63.67
36692;BME280;22678;52.052;4.242;2022-08-19T11:54:05;101492.31;;;25.81;63.91
36692;BME280;22678;52.052;4.242;2022-08-19T11:56:32;101499.25;;;25.85;62.99
36692;BME280;22678;52.052;4.242;2022-08-19T11:58:57;101489.06;;;25.90;63.24
36692;BME280;22678;52.052;4.242;2022-08-19T12:01:24;101477.25;;;26.07;63.05
36692;BME280;22678;52.052;4.242;2022-08-19T12:03:52;101485.78;;;26.28;62.38
36692;BME280;22678;52.052;4.242;2022-08-19T12:06:22;101487.59;;;26.42;61.93
36692;BME280;22678;52.052;4.242;2022-08-19T12:08:53;101476.38;;;26.48;61.01
36692;BME280;22678;52.052;4.242;2022-08-19T12:11:19;101484.19;;;26.53;60.65
36692;BME280;22678;52.052;4.242;2022-08-19T12:13:44;101492.06;;;26.56;61.16
36692;BME280;22678;52.052;4.242;2022-08-19T12:16:14;101495.63;;;26.71;61.02
36692;BME280;22678;52.052;4.242;2022-08-19T12:18:40;101481.56;;;26.93;60.04
36692;BME280;22678;52.052;4.242;2022-08-19T12:21:08;101488.09;;;27.16;59.43
36692;BME280;22678;52.052;4.242;2022-08-19T12:23:36;101467.81;;;27.10;58.94
36692;BME280;22678;52.052;4.242;2022-08-19T12:26:03;101484.66;;;27.14;58.77
36692;BME280;22678;52.052;4.242;2022-08-19T12:28:28;101476.66;;;27.13;58.84
36692;BME280;22678;52.052;4.242;2022-08-19T12:30:56;101487.47;;;27.25;59.20
36692;BME280;22678;52.052;4.242;2022-08-19T12:33:21;101485.63;;;27.26;58.59
36692;BME280;22678;52.052;4.242;2022-08-19T12:35:50;101468.91;;;27.21;58.66
36692;BME280;22678;52.052;4.242;2022-08-19T12:38:15;101477.28;;;27.43;59.21
36692;BME280;22678;52.052;4.242;2022-08-19T12:40:41;101474.78;;;27.66;58.99
36692;BME280;22678;52.052;4.242;2022-08-19T12:43:07;101474.88;;;27.77;58.65
36692;BME280;22678;52.052;4.242;2022-08-19T12:45:33;101482.16;;;27.77;58.64
36692;BME280;22678;52.052;4.242;2022-08-19T12:47:58;101470.22;;;27.79;58.38
36692;BME280;22678;52.052;4.242;2022-08-19T12:50:24;101479.63;;;27.87;57.51
36692;BME280;22678;52.052;4.242;2022-08-19T12:52:49;101475.22;;;27.86;57.09
36692;BME280;22678;52.052;4.242;2022-08-19T12:55:15;101469.38;;;27.92;57.47
36692;BME280;22678;52.052;4.242;2022-08-19T12:57:40;101476.63;;;28.04;57.37